Fugaku Maru — JH3428 — position and weather

sailwx.info

Track history (hours):
 
Tides and Currents Weather Stations Pressure Air Temp Water Temp Dewpoint Dewpoint Depression Visibility Wind Speed Wind Dir Waves Ship Positions

Fugaku Maru

Last reported at 2015-Mar-28 23:21 UTC. Time now 2015-Mar-29 20:49 UTC.
Position N 35°30' E 140°51'.

Length 165 m; draft 7.2 m.

Type: Cargo ship. MMSI: 431200176.

Date/timePositionNaut miles runAvg speedWind from/ knotsBaromVisibWave heightAir tempDewpointWater temp
2015-Mar-28 23:21N 35°30' E 140°51'2121.3
2015-Mar-28 22:20N 35°12' E 140°36'1821.6
2015-Mar-28 21:30N 34°60' E 140°21'2020.8
2015-Mar-28 20:33N 34°49' E 140°00'84 4.2
2015-Mar-28 00:21N 34°29' E 138°21'4020.0
2015-Mar-27 22:20N 34°32' E 139°10'2419.8
2015-Mar-27 21:07N 34°41' E 139°37'1119.8
2015-Mar-27 20:33N 34°45' E 139°50'1919.0
2015-Mar-27 19:33N 34°54' E 140°10'1917.7
2015-Mar-27 18:29N 35°05' E 140°29'1617.2
2015-Mar-27 17:33N 35°17' E 140°42'1918.7
2015-Mar-27 16:33N 35°32' E 140°57'2020.1
2015-Mar-27 15:32N 35°51' E 141°05'2020.4
2015-Mar-27 14:33N 36°11' E 141°05'2520.4
2015-Mar-27 13:20N 36°35' E 141°11'1720.5
2015-Mar-27 12:30N 36°52' E 141°15'  
2015-Mar-24 22:09N 35°12' E 140°36'1620.2
2015-Mar-24 21:21N 35°00' E 140°23'1620.8
2015-Mar-24 20:34N 34°52' E 140°06'8219.7
2015-Mar-24 16:24N 34°28' E 138°31'57 2.9
2015-Mar-23 20:32N 34°42' E 139°38'2020.0
2015-Mar-23 19:33N 34°49' E 140°00'1919.1
2015-Mar-23 18:32N 34°59' E 140°21'1818.1
2015-Mar-23 17:34N 35°12' E 140°35'2120.6
2015-Mar-23 16:34N 35°29' E 140°50'2020.0
2015-Mar-23 15:33N 35°47' E 141°01'2820.7
2015-Mar-23 14:11N 36°15' E 141°05'  
2015-Mar-20 19:12N 34°44' E 139°47'2 0.1
2015-Mar-19 20:16N 34°44' E 139°44'1520.3
2015-Mar-19 19:32N 34°50' E 140°01'  
Track history (hours):
 
Tides and Currents Weather Stations Pressure Air Temp Water Temp Dewpoint Dewpoint Depression Visibility Wind Speed Wind Dir Waves Ship Positions

Fugaku Maru

Last reported at 2015-Mar-28 23:21 UTC. Time now 2015-Mar-29 20:49 UTC.
Position N 35°30' E 140°51'.

Length 165 m; draft 7.2 m.

Type: Cargo ship. MMSI: 431200176.

Date/timePositionNaut miles runAvg speedWind from/ knotsBaromVisibWave heightAir tempDewpointWater temp
2015-Mar-28 23:21N 35°30' E 140°51'2121.3
2015-Mar-28 22:20N 35°12' E 140°36'1821.6
2015-Mar-28 21:30N 34°60' E 140°21'2020.8
2015-Mar-28 20:33N 34°49' E 140°00'84 4.2
2015-Mar-28 00:21N 34°29' E 138°21'4020.0
2015-Mar-27 22:20N 34°32' E 139°10'2419.8
2015-Mar-27 21:07N 34°41' E 139°37'1119.8
2015-Mar-27 20:33N 34°45' E 139°50'1919.0
2015-Mar-27 19:33N 34°54' E 140°10'1917.7
2015-Mar-27 18:29N 35°05' E 140°29'1617.2
2015-Mar-27 17:33N 35°17' E 140°42'1918.7
2015-Mar-27 16:33N 35°32' E 140°57'2020.1
2015-Mar-27 15:32N 35°51' E 141°05'2020.4
2015-Mar-27 14:33N 36°11' E 141°05'2520.4
2015-Mar-27 13:20N 36°35' E 141°11'1720.5
2015-Mar-27 12:30N 36°52' E 141°15'  
2015-Mar-24 22:09N 35°12' E 140°36'1620.2
2015-Mar-24 21:21N 35°00' E 140°23'1620.8
2015-Mar-24 20:34N 34°52' E 140°06'8219.7
2015-Mar-24 16:24N 34°28' E 138°31'57 2.9
2015-Mar-23 20:32N 34°42' E 139°38'2020.0
2015-Mar-23 19:33N 34°49' E 140°00'1919.1
2015-Mar-23 18:32N 34°59' E 140°21'1818.1
2015-Mar-23 17:34N 35°12' E 140°35'2120.6
2015-Mar-23 16:34N 35°29' E 140°50'2020.0
2015-Mar-23 15:33N 35°47' E 141°01'2820.7
2015-Mar-23 14:11N 36°15' E 141°05'  
2015-Mar-20 19:12N 34°44' E 139°47'2 0.1
2015-Mar-19 20:16N 34°44' E 139°44'1520.3
2015-Mar-19 19:32N 34°50' E 140°01'  

Dump ship's entire track history